LYBE/BEG METAR and TAF weather

Enter ICAO airport designator
Station Type Date Time Source
LYBE METAR 2022/06/27 08:00 UTC NOAA

LYBE 270800Z VRB02KT CAVOK 28/17 Q1018 NOSIG


Station Type Date Time Source
LYBE Decoded METAR 2022/06/27 08:00 UTC NOAA

Beograd / Surcin, Serbia and Montenegro (LYBE) 44-49N 020-17E 99M
Jun 27, 2022 - 04:00 AM EDT / 2022.06.27 0800 UTC
Wind: Variable at 2 MPH (2 KT):0
Visibility: greater than 7 mile(s):0
Temperature: 82 F (28 C)
Dew Point: 62 F (17 C)
Relative Humidity: 51%
Pressure (altimeter): 30.06 in. Hg (1018 hPa)
ob: LYBE 270800Z VRB02KT CAVOK 28/17 Q1018 NOSIG
cycle: 8

Station Type Date Time Source
LYBE TAF 2022/06/27 06:21 UTC NOAA

TAF LYBE 270500Z 2706/2806 07006KT CAVOK TX33/2714Z TN20/2803Z

Example: see airport list